Time;durP1;ratioP1;P1;durP2;ratioP2;P2;SDS_P1;SDS_P2;PMS_P1;PMS_P2;Temp;Humidity;BMP_temperature;BMP_pressure;BME280_temperature;BME280_humidity;BME280_pressure;Samples;Min_cycle;Max_cycle;Signal;HPM_P1;HPM_P2
2022/01/19 00:02:01;;;;;;;18.80;6.18;;;;;;;-0.86;81.75;95241.53;5009765;28;20050;-59
2022/01/19 00:04:28;;;;;;;15.83;6.03;;;;;;;-1.13;83.21;95225.53;5011603;28;20052;-59
2022/01/19 00:06:54;;;;;;;17.42;6.90;;;;;;;-1.26;83.81;95206.44;5010650;28;20042;-59
2022/01/19 00:09:23;;;;;;;19.63;7.90;;;;;;;-1.30;83.84;95189.31;5011520;28;20509;-59
2022/01/19 00:11:50;;;;;;;18.75;7.75;;;;;;;-1.34;83.92;95169.50;5010601;28;20045;-59
2022/01/19 00:14:17;;;;;;;20.15;7.97;;;;;;;-1.35;84.05;95156.34;5011327;28;20048;-59
2022/01/19 00:16:43;;;;;;;16.73;7.23;;;;;;;-1.24;83.72;95154.97;5009268;28;20052;-60
2022/01/19 00:19:10;;;;;;;15.05;6.68;;;;;;;-1.28;83.57;95159.38;5009750;28;20042;-60
2022/01/19 00:21:37;;;;;;;18.33;7.47;;;;;;;-1.28;83.61;95157.47;5010661;28;20050;-60
2022/01/19 00:24:04;;;;;;;19.67;7.07;;;;;;;-1.32;83.90;95166.50;5011282;28;20080;-60
2022/01/19 00:26:34;;;;;;;16.45;7.80;;;;;;;-1.41;84.27;95167.25;5011083;28;20042;-60
2022/01/19 00:29:01;;;;;;;20.50;7.07;;;;;;;-1.41;84.01;95182.59;5042141;28;20440;-59
2022/01/19 00:31:28;;;;;;;19.38;7.30;;;;;;;-1.35;83.99;95180.56;5011399;28;20093;-59
2022/01/19 00:33:55;;;;;;;22.15;8.10;;;;;;;-1.30;83.85;95192.00;5010015;28;20046;-59
2022/01/19 00:36:21;;;;;;;24.35;7.65;;;;;;;-1.31;84.20;95203.09;5010013;28;20042;-60
2022/01/19 00:38:48;;;;;;;19.63;8.68;;;;;;;-1.10;83.43;95195.28;5010388;28;20042;-58
2022/01/19 00:41:15;;;;;;;21.60;9.47;;;;;;;-1.01;83.01;95188.84;5026194;28;20445;-58
2022/01/19 00:43:42;;;;;;;24.02;9.68;;;;;;;-0.99;83.01;95191.19;5009791;28;20049;-59
2022/01/19 00:46:09;;;;;;;19.25;9.07;;;;;;;-0.85;82.53;95185.72;5010873;28;20097;-62
2022/01/19 00:48:40;;;;;;;19.77;8.50;;;;;;;-0.92;82.50;95185.38;5009869;28;20088;-58
2022/01/19 00:51:07;;;;;;;18.20;8.18;;;;;;;-0.88;82.13;95184.44;5009783;28;20932;-58
2022/01/19 00:53:34;;;;;;;18.17;7.97;;;;;;;-0.78;82.41;95179.91;5010795;28;20513;-59
2022/01/19 00:56:01;;;;;;;19.75;8.45;;;;;;;-0.79;81.79;95180.97;5010298;28;20064;-58
2022/01/19 00:58:28;;;;;;;23.02;9.10;;;;;;;-0.86;82.21;95189.53;5009102;28;20379;-58
2022/01/19 01:00:54;;;;;;;20.25;8.38;;;;;;;-0.90;82.98;95177.78;5010051;28;20144;-58
2022/01/19 01:03:21;;;;;;;23.15;8.52;;;;;;;-0.99;82.94;95172.34;5010765;28;20042;-59
2022/01/19 01:05:48;;;;;;;19.67;8.63;;;;;;;-1.10;83.55;95185.31;5009553;28;20044;-58
2022/01/19 01:08:15;;;;;;;20.17;8.23;;;;;;;-1.19;83.99;95186.34;5009061;28;20042;-60
2022/01/19 01:10:43;;;;;;;22.27;8.65;;;;;;;-1.38;84.61;95184.69;5009355;28;20072;-61
2022/01/19 01:15:24;;;;;;;22.40;9.25;;;;;;;-1.44;85.14;95189.38;5010125;28;20137;-59
2022/01/19 01:16:18;;;;;;;22.67;8.93;;;;;;;-1.54;85.77;95170.03;5009330;28;20597;-59
2022/01/19 01:18:45;;;;;;;20.17;9.03;;;;;;;-1.47;85.44;95170.34;5022675;28;20046;-61
2022/01/19 01:21:12;;;;;;;21.98;8.45;;;;;;;-1.43;85.29;95171.34;5008435;28;20085;-59
2022/01/19 01:23:38;;;;;;;43.40;13.25;;;;;;;-1.35;84.98;95159.81;5009585;28;20130;-59
2022/01/19 01:26:07;;;;;;;35.20;11.27;;;;;;;-1.18;85.40;95152.94;5009744;28;20617;-59
2022/01/19 01:28:34;;;;;;;31.73;12.48;;;;;;;-1.13;83.79;95147.41;5009918;28;20488;-59
2022/01/19 01:31:01;;;;;;;30.27;10.53;;;;;;;-1.11;84.34;95142.50;5007982;28;20060;-59
2022/01/19 01:33:28;;;;;;;22.25;8.90;;;;;;;-1.01;83.61;95153.00;5009940;28;20066;-60
2022/01/19 01:35:54;;;;;;;23.55;9.30;;;;;;;-1.07;83.67;95154.25;5009082;28;20053;-59
2022/01/19 01:38:21;;;;;;;18.58;8.70;;;;;;;-1.34;84.31;95156.03;5008747;28;20052;-59
2022/01/19 01:41:12;;;;;;;20.70;8.85;;;;;;;-1.17;83.86;95163.38;5008650;28;20890;-59
2022/01/19 01:43:44;;;;;;;21.63;8.70;;;;;;;-1.27;84.62;95164.47;5009265;28;20041;-59
2022/01/19 01:46:33;;;;;;;21.00;8.65;;;;;;;-1.08;83.82;95158.84;5009965;28;20072;-59
2022/01/19 01:48:59;;;;;;;18.88;9.10;;;;;;;-1.14;83.91;95151.22;5008735;28;20514;-59
2022/01/19 01:54:11;;;;;;;19.25;8.57;;;;;;;-1.33;84.29;95136.06;5008597;28;20678;-60
2022/01/19 01:56:38;;;;;;;20.40;8.17;;;;;;;-1.37;84.96;95132.41;5009032;28;20490;-59
2022/01/19 01:59:05;;;;;;;22.73;9.10;;;;;;;-1.30;85.05;95124.69;5007831;28;20234;-60
2022/01/19 02:01:32;;;;;;;40.60;12.90;;;;;;;-1.18;84.88;95126.00;5009280;28;20046;-59
2022/01/19 02:03:59;;;;;;;20.52;8.90;;;;;;;-1.29;85.03;95114.69;5008703;28;20458;-60
2022/01/19 02:06:31;;;;;;;19.88;8.85;;;;;;;-1.39;85.67;95105.00;5008058;28;20418;-60
2022/01/19 02:09:09;;;;;;;22.83;8.73;;;;;;;-1.47;86.10;95098.47;5008274;28;20038;-60
2022/01/19 02:23:01;;;;;;;34.53;11.70;;;;;;;-1.30;86.48;95080.81;4989010;28;20100;-59
2022/01/19 02:25:31;;;;;;;24.15;9.57;;;;;;;-1.32;85.94;95074.94;4989559;28;20571;-59
2022/01/19 02:41:40;;;;;;;25.35;10.60;;;;;;;-1.15;85.51;95034.56;4988925;28;20057;-54
2022/01/19 02:44:10;;;;;;;24.30;10.63;;;;;;;-1.32;86.22;95034.53;4989191;28;20042;-59
2022/01/19 02:49:16;;;;;;;26.93;10.63;;;;;;;-1.22;85.75;95029.66;4988688;28;20046;-59
2022/01/19 02:51:45;;;;;;;26.73;10.82;;;;;;;-1.22;85.09;95026.97;4988583;28;20046;-59
2022/01/19 02:54:13;;;;;;;23.00;10.05;;;;;;;-1.32;85.45;95027.25;4988967;28;20045;-59
2022/01/19 02:56:43;;;;;;;24.35;10.07;;;;;;;-1.14;85.10;95025.41;4988553;28;20073;-59
2022/01/19 02:59:30;;;;;;;24.48;9.73;;;;;;;-1.23;85.06;95020.00;4989201;28;20039;-58
2022/01/19 03:10:15;;;;;;;26.75;11.20;;;;;;;-1.41;86.07;95010.28;5004718;28;22595;-58
2022/01/19 03:12:42;;;;;;;27.23;11.30;;;;;;;-1.29;86.51;95010.50;5011377;28;20148;-58
2022/01/19 03:15:11;;;;;;;27.00;10.83;;;;;;;-1.21;85.90;95003.50;5011990;28;20042;-59
2022/01/19 03:17:39;;;;;;;27.27;11.23;;;;;;;-1.36;86.01;95009.34;5012119;28;20048;-59
2022/01/19 03:20:08;;;;;;;31.02;11.93;;;;;;;-1.29;86.04;95006.97;5012170;28;20084;-58
2022/01/19 03:22:45;;;;;;;27.38;11.43;;;;;;;-1.16;85.47;95002.59;5012591;28;20046;-60
2022/01/19 03:25:13;;;;;;;25.42;10.82;;;;;;;-1.19;85.23;95004.00;5011345;28;20631;-60
2022/01/19 03:27:40;;;;;;;27.57;10.40;;;;;;;-1.14;85.50;95003.84;5011808;28;20042;-59
2022/01/19 03:30:08;;;;;;;24.65;10.48;;;;;;;-1.18;85.42;94991.34;5012106;28;20046;-59
2022/01/19 03:32:35;;;;;;;24.85;10.07;;;;;;;-1.26;85.46;94991.00;5010885;28;20044;-59
2022/01/19 03:35:02;;;;;;;25.02;10.00;;;;;;;-1.24;85.36;94996.06;5026053;28;20042;-59
2022/01/19 03:37:29;;;;;;;24.35;10.50;;;;;;;-1.41;85.57;94994.13;5010804;28;20038;-59
2022/01/19 03:39:56;;;;;;;22.03;9.73;;;;;;;-1.53;86.56;94994.75;5010003;28;20056;-59
2022/01/19 03:42:24;;;;;;;24.25;10.70;;;;;;;-1.51;86.47;94984.44;5010627;28;20038;-59
2022/01/19 03:44:51;;;;;;;24.50;10.73;;;;;;;-1.48;86.54;94985.72;5009532;28;20057;-58
2022/01/19 03:47:18;;;;;;;28.88;11.77;;;;;;;-1.61;86.92;94988.22;5015455;28;20046;-59
2022/01/19 03:49:45;;;;;;;22.67;10.20;;;;;;;-1.52;86.68;94982.06;5011138;28;20038;-59
2022/01/19 03:52:12;;;;;;;23.33;9.20;;;;;;;-1.63;87.40;94976.16;5010917;28;20460;-58
2022/01/19 03:54:43;;;;;;;23.88;9.93;;;;;;;-1.67;87.85;94978.69;5011221;28;20064;-60
2022/01/19 03:57:11;;;;;;;25.80;11.05;;;;;;;-1.62;87.76;94970.47;5011456;28;20513;-61
2022/01/19 03:59:38;;;;;;;24.75;10.70;;;;;;;-1.60;87.72;94964.78;5011408;28;20089;-58
2022/01/19 04:02:06;;;;;;;23.42;9.55;;;;;;;-1.62;87.32;94964.28;5026413;28;20044;-58
2022/01/19 04:05:00;;;;;;;27.00;10.63;;;;;;;-1.57;87.37;94958.78;5011378;28;20099;-58
2022/01/19 04:07:31;;;;;;;27.40;10.82;;;;;;;-1.56;87.57;94952.28;5009630;28;21527;-58
2022/01/19 04:09:58;;;;;;;25.23;10.43;;;;;;;-1.50;87.35;94944.84;5010690;28;20045;-58
2022/01/19 04:12:42;;;;;;;23.50;9.98;;;;;;;-1.41;86.95;94953.72;5011398;28;20041;-59
2022/01/19 04:15:10;;;;;;;27.27;11.40;;;;;;;-1.35;86.80;94952.47;5010122;28;21511;-58
2022/01/19 04:17:42;;;;;;;25.90;10.23;;;;;;;-1.37;86.62;94952.00;5010790;28;20060;-56
2022/01/19 04:20:10;;;;;;;26.08;10.48;;;;;;;-1.43;86.99;94943.28;5010996;28;20475;-58
2022/01/19 04:22:37;;;;;;;26.90;12.00;;;;;;;-1.38;86.94;94941.56;5010595;28;20045;-56
2022/01/19 04:25:04;;;;;;;26.02;11.02;;;;;;;-1.34;86.98;94934.44;5010828;28;20174;-57
2022/01/19 04:27:33;;;;;;;25.55;10.60;;;;;;;-1.34;87.05;94942.50;5010827;28;20038;-60
2022/01/19 04:35:07;;;;;;;26.60;11.93;;;;;;;-1.31;87.04;94931.91;5009458;28;20046;-58
2022/01/19 04:37:47;;;;;;;27.75;11.68;;;;;;;-1.35;86.68;94941.69;5011195;28;20049;-59
2022/01/19 05:04:37;;;;;;;26.17;10.65;;;;;;;-1.52;87.37;94931.69;5010526;28;20057;-58
2022/01/19 05:07:16;;;;;;;24.83;11.13;;;;;;;-1.54;87.52;94933.13;5009452;28;20982;-58
2022/01/19 05:15:10;;;;;;;25.45;11.77;;;;;;;-1.63;88.17;94925.81;5008735;28;21583;-61
2022/01/19 05:17:38;;;;;;;28.67;12.48;;;;;;;-1.53;88.16;94923.94;5008363;28;20042;-59
2022/01/19 05:20:06;;;;;;;34.83;13.50;;;;;;;-1.47;87.70;94911.91;5009971;28;20034;-61
2022/01/19 05:22:33;;;;;;;27.97;11.00;;;;;;;-1.69;87.86;94907.44;5009962;28;20387;-60
2022/01/19 05:25:00;;;;;;;26.85;11.13;;;;;;;-1.88;89.25;94908.50;5009466;28;20463;-60
2022/01/19 05:27:27;;;;;;;27.73;11.85;;;;;;;-1.74;88.89;94905.69;5009959;28;20111;-60
2022/01/19 05:29:54;;;;;;;28.63;11.75;;;;;;;-1.83;88.92;94904.88;5009187;28;20156;-58
2022/01/19 05:32:21;;;;;;;26.77;12.02;;;;;;;-1.77;89.01;94905.50;5009935;28;20045;-58
2022/01/19 05:34:47;;;;;;;25.77;11.13;;;;;;;-1.81;89.08;94905.38;5008496;28;20625;-58
2022/01/19 05:37:14;;;;;;;24.67;10.40;;;;;;;-1.86;88.73;94903.59;5009474;28;20382;-57
2022/01/19 05:39:41;;;;;;;26.55;10.88;;;;;;;-1.89;88.84;94903.41;5009011;28;20052;-59
2022/01/19 05:42:14;;;;;;;27.95;12.23;;;;;;;-1.89;89.02;94900.72;5008816;28;20063;-58
2022/01/19 05:44:45;;;;;;;30.90;11.82;;;;;;;-1.81;89.03;94899.97;5007386;28;20487;-58
2022/01/19 05:47:17;;;;;;;25.43;10.97;;;;;;;-1.86;88.95;94897.44;5039184;28;20038;-58
2022/01/19 05:49:44;;;;;;;27.55;11.18;;;;;;;-1.95;89.56;94904.66;5008731;28;20042;-61
2022/01/19 05:52:11;;;;;;;26.90;11.25;;;;;;;-1.88;89.52;94896.94;5009005;28;20509;-60
2022/01/19 05:54:37;;;;;;;28.92;11.43;;;;;;;-1.81;88.97;94891.91;5024093;28;20052;-59
2022/01/19 05:57:05;;;;;;;25.85;10.95;;;;;;;-1.87;89.25;94891.25;5008951;28;20048;-58
2022/01/19 05:59:31;;;;;;;29.90;11.77;;;;;;;-1.80;88.91;94890.78;5009444;28;20054;-58
2022/01/19 06:01:58;;;;;;;41.15;16.63;;;;;;;-1.82;89.70;94887.63;5008612;28;20048;-57
2022/01/19 06:04:26;;;;;;;32.85;13.05;;;;;;;-1.71;88.39;94897.00;5023866;28;20487;-58
2022/01/19 06:06:55;;;;;;;26.63;11.27;;;;;;;-1.77;88.49;94895.56;5008485;28;20045;-58
2022/01/19 06:09:37;;;;;;;28.95;11.35;;;;;;;-1.79;88.52;94897.78;5009094;28;20046;-58
2022/01/19 06:12:09;;;;;;;27.07;11.50;;;;;;;-1.78;88.61;94899.34;5007880;28;21754;-61
2022/01/19 06:14:39;;;;;;;26.25;11.23;;;;;;;-1.83;88.62;94891.44;5008726;28;20037;-58
2022/01/19 06:17:07;;;;;;;25.35;10.93;;;;;;;-1.83;88.60;94894.13;5007907;28;20038;-58
2022/01/19 06:19:35;;;;;;;27.98;10.88;;;;;;;-1.89;88.68;94898.03;5024135;28;20155;-58
2022/01/19 06:22:02;;;;;;;27.42;11.52;;;;;;;-1.81;88.98;94891.91;5008120;28;20409;-58
2022/01/19 06:24:29;;;;;;;25.70;10.63;;;;;;;-1.77;88.52;94892.88;5009036;28;20056;-58
2022/01/19 06:26:56;;;;;;;26.42;11.02;;;;;;;-1.82;88.36;94879.56;5008108;28;20058;-58
2022/01/19 06:29:22;;;;;;;26.88;11.25;;;;;;;-1.90;89.00;94877.63;5007805;28;20531;-59
2022/01/19 06:31:50;;;;;;;27.50;11.27;;;;;;;-2.03;89.25;94880.13;5007676;28;20033;-59
2022/01/19 06:34:17;;;;;;;28.20;11.73;;;;;;;-2.01;89.41;94882.50;5005836;28;20046;-59
2022/01/19 06:36:44;;;;;;;26.50;11.33;;;;;;;-1.91;89.13;94882.22;5008195;28;20052;-59
2022/01/19 06:39:10;;;;;;;27.83;10.93;;;;;;;-1.87;88.88;94883.19;5006940;28;20099;-59
2022/01/19 06:41:37;;;;;;;29.13;12.35;;;;;;;-1.77;88.86;94883.97;5007831;28;20400;-57
2022/01/19 06:44:05;;;;;;;28.55;12.02;;;;;;;-1.74;88.01;94881.47;5007152;28;20041;-58
2022/01/19 06:46:32;;;;;;;31.42;12.50;;;;;;;-1.70;88.38;94879.72;5007596;28;20038;-59
2022/01/19 06:48:59;;;;;;;27.27;11.23;;;;;;;-1.76;88.09;94886.38;5007695;28;20053;-59
2022/01/19 06:51:26;;;;;;;25.67;10.43;;;;;;;-1.78;88.01;94885.88;5023676;28;20053;-59
2022/01/19 06:53:52;;;;;;;29.50;12.73;;;;;;;-1.89;88.25;94879.19;5017701;28;20050;-59
2022/01/19 06:56:19;;;;;;;28.73;12.80;;;;;;;-1.83;88.20;94877.97;5019373;28;20092;-59
2022/01/19 06:58:46;;;;;;;28.80;12.35;;;;;;;-1.70;87.75;94881.63;4988551;28;20046;-60
2022/01/19 07:01:13;;;;;;;26.00;11.87;;;;;;;-1.72;87.86;94876.56;4988841;28;20452;-59
2022/01/19 07:03:41;;;;;;;28.67;11.57;;;;;;;-1.75;87.87;94876.38;4988439;28;20042;-60
2022/01/19 07:06:11;;;;;;;26.15;11.55;;;;;;;-1.72;87.59;94875.78;4987282;28;20465;-59
2022/01/19 07:08:41;;;;;;;25.42;11.57;;;;;;;-1.76;87.52;94872.91;5004664;28;20050;-59
2022/01/19 07:11:09;;;;;;;27.95;12.15;;;;;;;-1.72;87.81;94867.69;5007985;28;20042;-59
2022/01/19 07:13:35;;;;;;;26.23;11.37;;;;;;;-1.64;87.31;94862.31;5007029;28;20045;-59
2022/01/19 07:16:02;;;;;;;26.95;11.30;;;;;;;-1.65;86.83;94866.13;5007051;28;20052;-59
2022/01/19 07:18:29;;;;;;;29.60;12.88;;;;;;;-1.59;87.17;94863.28;5008323;28;20041;-59
2022/01/19 07:20:56;;;;;;;26.48;11.45;;;;;;;-1.59;86.59;94860.59;5007858;28;20072;-59
2022/01/19 07:23:23;;;;;;;30.13;12.60;;;;;;;-1.65;86.87;94860.75;5006729;28;20390;-59
2022/01/19 07:25:49;;;;;;;28.67;11.73;;;;;;;-1.64;86.70;94867.72;5006514;28;20042;-59
2022/01/19 07:28:16;;;;;;;29.45;12.98;;;;;;;-1.52;86.87;94869.00;5039621;28;20044;-58
2022/01/19 07:30:43;;;;;;;27.48;12.02;;;;;;;-1.39;86.23;94867.25;5007491;28;20046;-58
2022/01/19 07:33:11;;;;;;;26.33;11.35;;;;;;;-1.55;86.08;94873.13;5007929;28;20392;-59
2022/01/19 07:35:38;;;;;;;26.10;11.77;;;;;;;-1.50;86.37;94874.88;5006449;28;20046;-58
2022/01/19 07:38:05;;;;;;;25.40;11.00;;;;;;;-1.42;85.98;94871.38;5007550;28;20050;-59
2022/01/19 07:40:35;;;;;;;31.27;13.48;;;;;;;-1.35;85.91;94870.91;5008439;28;20376;-59
2022/01/19 07:43:02;;;;;;;32.10;13.43;;;;;;;-1.22;85.75;94870.75;5006811;28;20042;-58
2022/01/19 07:45:29;;;;;;;26.60;11.93;;;;;;;-1.10;85.20;94866.66;5008073;28;20049;-59
2022/01/19 07:47:56;;;;;;;39.10;17.23;;;;;;;-1.14;84.56;94861.09;5007238;28;20056;-59
2022/01/19 07:50:23;;;;;;;28.07;12.33;;;;;;;-1.32;85.37;94857.59;5006600;28;20042;-60
2022/01/19 07:52:51;;;;;;;30.80;13.88;;;;;;;-1.44;86.05;94854.75;5007481;28;20428;-61
2022/01/19 07:55:17;;;;;;;31.40;14.15;;;;;;;-1.29;85.50;94857.00;5007695;28;20446;-61
2022/01/19 07:57:50;;;;;;;30.15;12.80;;;;;;;-1.11;85.18;94859.66;5009206;28;20132;-61
2022/01/19 08:00:18;;;;;;;28.83;12.60;;;;;;;-0.98;84.15;94860.63;5011439;28;20042;-61
2022/01/19 08:02:46;;;;;;;28.97;12.73;;;;;;;-0.88;84.36;94857.59;5011358;28;20038;-61
2022/01/19 08:05:13;;;;;;;29.08;12.60;;;;;;;-0.98;83.55;94858.72;5011246;28;20042;-61
2022/01/19 08:07:40;;;;;;;31.75;14.13;;;;;;;-1.03;84.17;94856.16;5010929;28;20053;-61
2022/01/19 08:10:08;;;;;;;32.33;16.13;;;;;;;-1.04;84.37;94854.59;5009914;28;20045;-62
2022/01/19 08:12:37;;;;;;;190.23;71.07;;;;;;;-1.00;84.13;94852.84;5011040;28;20042;-61
2022/01/19 08:15:05;;;;;;;40.60;17.23;;;;;;;-1.01;84.46;94848.56;5007394;28;20247;-61
2022/01/19 08:17:32;;;;;;;43.30;21.48;;;;;;;-0.77;83.74;94852.66;5011185;28;20050;-61
2022/01/19 08:19:59;;;;;;;34.47;15.93;;;;;;;-0.81;83.48;94849.78;5010441;28;20164;-61
2022/01/19 08:22:26;;;;;;;30.42;13.05;;;;;;;-0.58;82.68;94850.41;5011064;28;20041;-61
2022/01/19 08:24:52;;;;;;;33.45;13.77;;;;;;;-0.58;82.17;94855.78;5010523;28;20054;-61
2022/01/19 08:27:19;;;;;;;38.13;15.20;;;;;;;-0.97;83.64;94841.41;5009472;28;20406;-62
2022/01/19 08:29:46;;;;;;;35.97;13.40;;;;;;;-0.84;83.55;94843.16;5010521;28;20042;-61
2022/01/19 08:32:13;;;;;;;29.15;12.80;;;;;;;-0.59;82.79;94846.09;5009396;28;20042;-61
2022/01/19 08:34:58;;;;;;;32.90;12.95;;;;;;;-0.44;81.97;94836.72;5009887;28;20049;-61
2022/01/19 08:37:24;;;;;;;29.75;12.48;;;;;;;-0.69;82.23;94839.16;5008965;28;20075;-62
2022/01/19 08:39:52;;;;;;;28.77;12.87;;;;;;;-0.38;81.84;94829.22;5010272;28;20054;-62
2022/01/19 08:42:19;;;;;;;41.60;15.27;;;;;;;-0.47;81.46;94835.44;5042291;28;20048;-61
2022/01/19 08:44:51;;;;;;;30.67;13.15;;;;;;;-0.22;81.58;94838.38;5010181;28;20530;-61
2022/01/19 08:47:19;;;;;;;40.88;15.07;;;;;;;-0.08;80.25;94843.53;5041974;28;20056;-62
2022/01/19 08:49:54;;;;;;;61.42;18.75;;;;;;;0.26;79.28;94839.06;5010244;28;20052;-61
2022/01/19 08:52:21;;;;;;;34.70;13.53;;;;;;;0.50;77.87;94847.31;5010178;28;20046;-63
2022/01/19 08:54:48;;;;;;;41.05;14.25;;;;;;;0.58;76.95;94845.69;5010023;28;20042;-62
2022/01/19 08:57:15;;;;;;;34.78;13.77;;;;;;;0.82;76.06;94841.53;5010261;28;20038;-61
2022/01/19 08:59:42;;;;;;;31.25;12.80;;;;;;;1.11;74.47;94849.56;5009816;28;20129;-61
2022/01/19 09:02:09;;;;;;;38.80;14.15;;;;;;;1.41;73.93;94849.44;5010258;28;20034;-62
2022/01/19 09:04:36;;;;;;;30.47;12.60;;;;;;;1.30;73.29;94842.84;5010463;28;20505;-62
2022/01/19 09:07:03;;;;;;;28.08;12.35;;;;;;;2.27;71.03;94841.38;5009182;28;20438;-62
2022/01/19 09:09:30;;;;;;;28.83;13.05;;;;;;;1.97;69.72;94835.41;5009558;28;20053;-62
2022/01/19 09:11:57;;;;;;;30.73;12.75;;;;;;;2.75;69.25;94837.03;5025195;28;20465;-62
2022/01/19 09:14:24;;;;;;;28.00;13.50;;;;;;;4.23;63.08;94838.97;5007888;28;20230;-62
2022/01/19 09:16:51;;;;;;;23.77;12.33;;;;;;;5.09;61.99;94830.00;4997327;28;20042;-62
2022/01/19 09:19:19;;;;;;;26.60;12.60;;;;;;;3.70;63.69;94839.25;5009842;28;20060;-62
2022/01/19 09:21:47;;;;;;;53.63;18.92;;;;;;;3.70;64.19;94838.44;5009628;28;20344;-62
2022/01/19 09:24:13;;;;;;;36.10;15.35;;;;;;;3.71;63.66;94837.31;5008720;28;20038;-62
2022/01/19 09:26:40;;;;;;;28.85;14.50;;;;;;;3.54;64.61;94835.69;5009454;28;20053;-62
2022/01/19 09:29:08;;;;;;;25.23;13.20;;;;;;;4.20;63.12;94836.94;4992030;28;20053;-62
2022/01/19 09:31:36;;;;;;;28.98;14.20;;;;;;;3.65;63.71;94836.78;5009814;28;20046;-62
2022/01/19 09:34:09;;;;;;;26.55;13.65;;;;;;;3.19;64.77;94836.31;5007779;28;20213;-63
2022/01/19 09:36:44;;;;;;;26.00;13.75;;;;;;;4.91;61.20;94824.19;5008421;28;20056;-62
2022/01/19 09:39:14;;;;;;;25.50;13.50;;;;;;;5.58;58.56;94831.31;5008640;28;20561;-62
2022/01/19 09:41:42;;;;;;;24.53;13.00;;;;;;;6.12;55.75;94824.09;5009448;28;20060;-62
2022/01/19 09:44:09;;;;;;;24.60;13.38;;;;;;;5.92;56.84;94823.34;5024254;28;20069;-62
2022/01/19 09:46:36;;;;;;;23.80;13.10;;;;;;;3.94;61.51;94830.16;5009877;28;20049;-63
2022/01/19 09:49:07;;;;;;;24.88;13.43;;;;;;;4.94;59.76;94833.56;5009003;28;20825;-62
2022/01/19 09:51:35;;;;;;;27.85;14.43;;;;;;;6.15;56.66;94828.81;5009344;28;20122;-62
2022/01/19 09:54:02;;;;;;;23.50;13.30;;;;;;;6.05;55.83;94829.41;5009385;28;20509;-63
2022/01/19 09:56:29;;;;;;;26.40;14.05;;;;;;;6.94;52.91;94813.59;5009127;28;20050;-62
2022/01/19 09:58:56;;;;;;;23.30;13.27;;;;;;;6.02;55.40;94819.25;5008718;28;20049;-61
2022/01/19 10:01:25;;;;;;;24.15;13.77;;;;;;;8.40;49.49;94808.06;5009193;28;20049;-62
2022/01/19 10:03:53;;;;;;;22.08;12.95;;;;;;;8.92;47.98;94802.56;5008832;28;20134;-62
2022/01/19 10:06:25;;;;;;;24.83;14.17;;;;;;;8.05;49.38;94803.88;5008935;28;20050;-62
2022/01/19 10:08:56;;;;;;;22.67;13.68;;;;;;;9.98;45.06;94815.06;5008585;28;20042;-62
2022/01/19 10:17:04;;;;;;;23.55;14.27;;;;;;;8.73;47.84;94789.94;5008367;28;20053;-62
2022/01/19 10:19:38;;;;;;;23.90;13.93;;;;;;;9.21;47.15;94784.28;5008520;28;20052;-62
2022/01/19 10:22:12;;;;;;;24.45;14.50;;;;;;;8.22;49.06;94783.31;5008052;28;20655;-62
2022/01/19 10:24:54;;;;;;;22.90;13.95;;;;;;;10.02;44.15;94786.84;5008562;28;20046;-62
2022/01/19 10:27:24;;;;;;;22.02;14.10;;;;;;;9.59;44.61;94780.09;5008782;28;20045;-63
2022/01/19 10:29:54;;;;;;;23.05;14.63;;;;;;;9.59;45.21;94776.59;5008480;28;20042;-63
2022/01/19 10:32:23;;;;;;;22.30;14.30;;;;;;;12.10;40.40;94758.75;5008562;28;20038;-62
2022/01/19 10:34:52;;;;;;;24.73;14.40;;;;;;;11.12;41.38;94763.97;5008439;28;20121;-63
2022/01/19 10:37:24;;;;;;;23.33;15.05;;;;;;;10.53;42.97;94756.28;5006977;28;20049;-62
2022/01/19 10:39:54;;;;;;;23.10;15.00;;;;;;;10.42;42.73;94750.03;5008556;28;20111;-62
2022/01/19 10:42:27;;;;;;;22.08;14.00;;;;;;;9.84;44.43;94762.94;5039753;28;20399;-62
2022/01/19 10:44:56;;;;;;;23.53;14.00;;;;;;;10.37;42.96;94750.44;5039813;28;20049;-63
2022/01/19 10:47:39;;;;;;;22.15;13.63;;;;;;;9.14;45.52;94759.63;5008499;28;20038;-63
2022/01/19 10:50:13;;;;;;;21.10;13.57;;;;;;;8.58;47.34;94761.72;5006174;28;20541;-63
2022/01/19 10:52:44;;;;;;;24.52;15.38;;;;;;;8.51;48.37;94742.50;5008235;28;20390;-63
2022/01/19 10:55:18;;;;;;;24.55;14.20;;;;;;;9.31;46.28;94742.47;5006952;28;20038;-63
2022/01/19 10:57:47;;;;;;;22.70;14.70;;;;;;;10.91;43.14;94734.63;5007952;28;20041;-63
2022/01/19 11:00:23;;;;;;;38.28;24.85;;;;;;;10.63;43.05;94727.25;5007763;28;20058;-63
2022/01/19 11:02:56;;;;;;;24.38;14.85;;;;;;;10.01;43.74;94731.22;5008300;28;20054;-63
2022/01/19 11:05:49;;;;;;;25.55;15.52;;;;;;;8.60;47.53;94721.06;5008436;28;20046;-63
2022/01/19 11:08:18;;;;;;;30.85;19.63;;;;;;;10.11;44.76;94713.97;5007116;28;20564;-63
2022/01/19 11:10:50;;;;;;;25.13;15.57;;;;;;;9.38;45.96;94717.06;5007828;28;20126;-63
2022/01/19 11:13:42;;;;;;;23.23;14.38;;;;;;;8.96;46.42;94713.81;5008369;28;20352;-63
2022/01/19 11:16:09;;;;;;;29.88;18.15;;;;;;;8.62;48.18;94705.06;5007179;28;20798;-63
2022/01/19 11:18:39;;;;;;;23.92;15.07;;;;;;;11.03;43.53;94688.66;5008491;28;20038;-63
2022/01/19 11:21:11;;;;;;;30.67;16.00;;;;;;;10.60;43.47;94678.63;4999766;28;20806;-63
2022/01/19 11:24:11;;;;;;;28.27;15.20;;;;;;;10.52;42.41;94677.09;5007912;28;20034;-63
2022/01/19 11:26:40;;;;;;;28.27;15.85;;;;;;;9.62;44.79;94681.84;5007784;28;20046;-63
2022/01/19 11:29:18;;;;;;;28.25;16.30;;;;;;;11.62;41.89;94671.47;5008178;28;20046;-63
2022/01/19 11:31:47;;;;;;;24.10;15.30;;;;;;;11.84;39.68;94664.59;5007973;28;20052;-63
2022/01/19 11:34:14;;;;;;;24.88;15.05;;;;;;;10.13;43.20;94661.47;5012109;28;20049;-63
2022/01/19 11:36:43;;;;;;;24.10;14.33;;;;;;;11.46;41.62;94653.50;5010901;28;20048;-63
2022/01/19 11:39:21;;;;;;;20.73;13.95;;;;;;;11.48;40.60;94655.84;5012044;28;20054;-63
2022/01/19 11:41:54;;;;;;;22.38;14.57;;;;;;;10.25;42.58;94647.34;5011554;28;20079;-63
2022/01/19 11:44:33;;;;;;;22.73;14.13;;;;;;;9.84;44.04;94631.34;5009504;28;20038;-63
2022/01/19 11:47:16;;;;;;;20.63;13.48;;;;;;;11.85;39.89;94635.13;5011054;28;20415;-63
2022/01/19 11:50:15;;;;;;;22.00;13.93;;;;;;;11.96;39.56;94627.59;5011322;28;20041;-63
2022/01/19 11:52:46;;;;;;;21.63;13.57;;;;;;;12.89;37.94;94629.34;5010661;28;20064;-63
2022/01/19 11:55:25;;;;;;;22.35;14.80;;;;;;;10.84;41.92;94624.81;5011694;28;20042;-62
2022/01/19 11:58:12;;;;;;;22.05;14.73;;;;;;;11.90;39.43;94627.25;5011415;28;20045;-63
2022/01/19 12:00:40;;;;;;;21.20;13.90;;;;;;;11.71;40.76;94616.78;5007021;28;20049;-63
2022/01/19 12:03:22;;;;;;;21.70;12.93;;;;;;;11.06;41.66;94619.22;5011613;28;20034;-63
2022/01/19 12:06:29;;;;;;;20.40;12.90;;;;;;;10.62;42.29;94604.13;5010724;28;20042;-63
2022/01/19 12:08:57;;;;;;;23.05;14.50;;;;;;;9.58;44.67;94591.44;5010788;28;20046;-63
2022/01/19 12:11:24;;;;;;;25.70;15.05;;;;;;;8.05;49.05;94601.59;5011249;28;20042;-62
2022/01/19 12:14:10;;;;;;;24.48;14.50;;;;;;;9.20;46.67;94605.50;5011032;28;20115;-63
2022/01/19 12:17:25;;;;;;;21.87;13.83;;;;;;;9.76;46.03;94594.16;5010928;28;20053;-63
2022/01/19 12:19:53;;;;;;;23.13;13.85;;;;;;;10.31;43.65;94599.16;4999650;28;20639;-64
2022/01/19 12:22:23;;;;;;;22.08;13.40;;;;;;;9.82;44.46;94592.59;5010948;28;20048;-64
2022/01/19 12:25:09;;;;;;;22.75;13.70;;;;;;;8.17;48.86;94592.28;5010836;28;20052;-64
2022/01/19 12:27:38;;;;;;;24.83;14.60;;;;;;;5.66;56.11;94592.59;5010898;28;20050;-64
2022/01/19 12:30:15;;;;;;;22.57;13.47;;;;;;;5.25;57.49;94585.00;5010129;28;20524;-64
2022/01/19 12:32:44;;;;;;;27.85;14.07;;;;;;;4.54;60.37;94576.41;5010829;28;20038;-63
2022/01/19 12:35:22;;;;;;;24.48;12.80;;;;;;;4.47;60.18;94574.34;5026123;28;20042;-64
2022/01/19 12:37:55;;;;;;;25.85;12.73;;;;;;;4.24;62.50;94581.66;5010360;28;20045;-63
2022/01/19 12:40:24;;;;;;;23.25;12.18;;;;;;;4.15;61.82;94571.03;5009776;28;20164;-63
2022/01/19 12:42:57;;;;;;;25.10;12.33;;;;;;;4.21;62.10;94569.59;5010069;28;20394;-63
2022/01/19 12:45:43;;;;;;;26.05;11.40;;;;;;;4.63;60.91;94562.56;5001924;28;20046;-63
2022/01/19 12:48:12;;;;;;;23.52;11.60;;;;;;;4.80;60.46;94556.66;5001044;28;21507;-63
2022/01/19 12:50:43;;;;;;;17.48;9.15;;;;;;;5.24;59.30;94549.97;5008936;28;20049;-63
2022/01/19 12:53:17;;;;;;;17.40;9.00;;;;;;;5.42;58.42;94551.03;5010716;28;20358;-63
2022/01/19 12:55:48;;;;;;;16.57;8.10;;;;;;;5.01;59.24;94550.81;5010146;28;20399;-63